createdAt,value
2022-09-17T00:02:08.523Z,10.93
2022-09-17T00:04:38.727Z,10.75
2022-09-17T00:07:07.042Z,10.86
2022-09-17T00:09:37.598Z,10.79
2022-09-17T00:12:06.266Z,10.71
2022-09-17T00:14:34.611Z,10.85
2022-09-17T00:17:04.414Z,10.78
2022-09-17T00:19:32.787Z,10.71
2022-09-17T00:22:04.450Z,10.83
2022-09-17T00:24:32.787Z,10.81
2022-09-17T00:27:01.118Z,10.86
2022-09-17T00:29:29.839Z,10.70
2022-09-17T00:31:58.207Z,10.77
2022-09-17T00:34:26.593Z,10.89
2022-09-17T00:36:54.892Z,10.87
2022-09-17T00:39:24.970Z,10.86
2022-09-17T00:41:53.324Z,10.88
2022-09-17T00:44:41.411Z,10.88
2022-09-17T00:47:14.122Z,10.74
2022-09-17T00:49:42.424Z,10.76
2022-09-17T00:52:12.556Z,10.81
2022-09-17T00:54:43.985Z,10.69
2022-09-17T00:57:12.414Z,10.62
2022-09-17T00:59:40.972Z,10.63
2022-09-17T01:02:09.340Z,10.59
2022-09-17T01:04:37.734Z,10.77
2022-09-17T01:07:10.852Z,10.62
2022-09-17T01:09:45.451Z,10.73
2022-09-17T01:12:25.620Z,10.63
2022-09-17T01:15:02.244Z,10.75
2022-09-17T01:17:32.701Z,10.77
2022-09-17T01:20:23.206Z,10.71
2022-09-17T01:23:00.098Z,10.58
2022-09-17T01:25:35.407Z,10.79
2022-09-17T01:28:22.495Z,10.53
2022-09-17T01:31:06.407Z,10.58
2022-09-17T01:33:40.615Z,10.62
2022-09-17T01:36:17.698Z,10.79
2022-09-17T01:38:48.679Z,10.39
2022-09-17T01:41:20.009Z,10.48
2022-09-17T01:43:50.231Z,10.67
2022-09-17T01:46:23.036Z,10.51
2022-09-17T01:48:52.268Z,10.58
2022-09-17T01:51:22.371Z,10.42
2022-09-17T01:53:52.938Z,10.55
2022-09-17T01:56:24.510Z,10.60
2022-09-17T01:58:55.365Z,10.37
2022-09-17T02:01:25.588Z,10.42
2022-09-17T02:03:56.298Z,10.25
2022-09-17T02:06:27.376Z,10.55
2022-09-17T02:08:58.506Z,10.47
2022-09-17T02:11:26.935Z,10.54
2022-09-17T02:13:56.388Z,10.61
2022-09-17T02:19:18.985Z,10.49
2022-09-17T02:21:48.184Z,10.16
2022-09-17T02:24:21.072Z,10.50
2022-09-17T02:26:52.083Z,10.56
2022-09-17T02:29:24.799Z,10.59
2022-09-17T02:31:55.049Z,10.65
2022-09-17T02:34:27.718Z,10.61
2022-09-17T02:36:56.065Z,10.36
2022-09-17T02:39:24.377Z,10.56
2022-09-17T02:41:55.595Z,10.44
2022-09-17T02:44:28.792Z,10.60
2022-09-17T02:47:07.221Z,10.53
2022-09-17T02:49:57.758Z,10.55
2022-09-17T02:52:33.041Z,10.46
2022-09-17T02:55:03.955Z,10.50
2022-09-17T02:57:34.824Z,10.64
2022-09-17T03:00:09.946Z,10.26
2022-09-17T03:02:41.109Z,10.28
2022-09-17T03:05:09.952Z,10.25
2022-09-17T03:07:38.484Z,10.13
2022-09-17T03:10:07.437Z,10.32
2022-09-17T03:12:35.854Z,10.28
2022-09-17T03:15:04.177Z,10.43
2022-09-17T03:17:32.498Z,10.48
2022-09-17T03:20:02.186Z,10.30
2022-09-17T03:22:30.525Z,10.22
2022-09-17T03:24:59.199Z,10.04
2022-09-17T03:27:27.540Z,10.27
2022-09-17T03:29:55.883Z,10.33
2022-09-17T03:32:24.254Z,10.40
2022-09-17T03:34:54.176Z,10.48
2022-09-17T03:37:23.887Z,10.45
2022-09-17T03:39:52.302Z,10.14
2022-09-17T03:42:20.651Z,10.24
2022-09-17T03:44:48.959Z,10.10
2022-09-17T03:47:18.094Z,10.23
2022-09-17T03:49:46.445Z,10.12
2022-09-17T03:52:14.816Z,10.14
2022-09-17T03:54:44.531Z,10.10
2022-09-17T03:57:12.925Z,9.83
2022-09-17T03:59:41.247Z,10.00
2022-09-17T04:02:09.963Z,10.13
2022-09-17T04:04:38.315Z,10.13
2022-09-17T04:07:06.763Z,10.22
2022-09-17T04:09:35.468Z,10.12
2022-09-17T04:12:05.960Z,10.08
2022-09-17T04:14:34.826Z,10.16
2022-09-17T04:17:03.140Z,10.26
2022-09-17T04:19:31.466Z,10.29
2022-09-17T04:22:00.413Z,10.26
2022-09-17T04:24:28.747Z,10.22
2022-09-17T04:26:57.121Z,10.35
2022-09-17T04:29:26.885Z,9.93
2022-09-17T04:31:55.186Z,9.98
2022-09-17T04:34:24.000Z,9.95
2022-09-17T04:36:52.325Z,10.18
2022-09-17T04:39:20.672Z,10.27
2022-09-17T04:41:49.021Z,10.33
2022-09-17T04:44:17.306Z,10.33
2022-09-17T04:46:47.060Z,10.27
2022-09-17T04:49:17.391Z,10.23
2022-09-17T04:51:45.695Z,10.36
2022-09-17T04:54:14.842Z,10.20
2022-09-17T04:56:43.669Z,10.05
2022-09-17T04:59:12.131Z,10.05
2022-09-17T05:01:40.595Z,10.12
2022-09-17T05:04:10.404Z,10.00
2022-09-17T05:06:39.263Z,10.28
2022-09-17T05:09:08.293Z,10.18
2022-09-17T05:11:42.018Z,10.08
2022-09-17T05:14:11.076Z,10.27
2022-09-17T05:16:39.580Z,10.26
2022-09-17T05:19:09.527Z,10.22
2022-09-17T05:21:38.699Z,10.28
2022-09-17T05:24:07.359Z,10.42
2022-09-17T05:26:36.011Z,10.31
2022-09-17T05:29:04.934Z,10.38
2022-09-17T05:31:36.344Z,10.37
2022-09-17T05:34:05.473Z,10.39
2022-09-17T05:36:36.714Z,10.12
2022-09-17T05:39:05.063Z,10.34
2022-09-17T05:41:33.473Z,10.38
2022-09-17T05:44:01.840Z,10.12
2022-09-17T05:46:30.831Z,10.36
2022-09-17T05:49:02.077Z,10.34
2022-09-17T05:51:30.408Z,10.31
2022-09-17T05:56:45.941Z,10.10
2022-09-17T05:59:15.734Z,10.25
2022-09-17T06:01:47.227Z,10.34
2022-09-17T06:04:16.245Z,10.34
2022-09-17T06:06:44.624Z,10.46
2022-09-17T06:09:15.254Z,10.57
2022-09-17T06:11:43.666Z,10.58
2022-09-17T06:14:12.053Z,10.65
2022-09-17T06:16:40.667Z,10.48
2022-09-17T06:19:09.688Z,10.70
2022-09-17T06:21:38.755Z,10.83
2022-09-17T06:24:07.528Z,10.81
2022-09-17T06:26:37.454Z,10.72
2022-09-17T06:29:05.823Z,10.92
2022-09-17T06:31:34.306Z,11.02
2022-09-17T06:34:09.495Z,11.12
2022-09-17T06:36:37.858Z,10.92
2022-09-17T06:39:06.339Z,10.99
2022-09-17T06:41:34.819Z,11.18
2022-09-17T06:44:23.337Z,11.36
2022-09-17T06:46:52.536Z,11.23
2022-09-17T06:49:20.924Z,11.24
2022-09-17T06:51:49.289Z,11.17
2022-09-17T06:54:18.053Z,11.31
2022-09-17T06:56:48.340Z,11.25
2022-09-17T06:59:16.688Z,11.20
2022-09-17T07:01:47.653Z,11.27
2022-09-17T07:04:17.662Z,11.27
2022-09-17T07:06:46.302Z,11.32
2022-09-17T07:09:14.725Z,11.06
2022-09-17T07:11:43.514Z,11.18
2022-09-17T07:14:12.039Z,11.08
2022-09-17T07:16:40.610Z,11.17
2022-09-17T07:19:11.238Z,11.03
2022-09-17T07:21:40.166Z,11.03
2022-09-17T07:24:30.674Z,10.70
2022-09-17T07:27:01.912Z,10.60
2022-09-17T07:29:32.487Z,10.78
2022-09-17T07:32:00.904Z,10.68
2022-09-17T07:34:30.931Z,10.56
2022-09-17T07:36:59.499Z,10.86
2022-09-17T07:39:27.926Z,10.92
2022-09-17T07:41:57.196Z,11.07
2022-09-17T07:44:25.600Z,11.10
2022-09-17T07:46:53.989Z,11.22
2022-09-17T07:49:24.303Z,11.42
2022-09-17T07:51:55.013Z,11.18
2022-09-17T07:54:25.410Z,11.14
2022-09-17T07:56:53.763Z,11.37
2022-09-17T07:59:22.704Z,11.34
2022-09-17T08:01:51.145Z,11.48
2022-09-17T08:04:19.780Z,11.48
2022-09-17T08:09:36.298Z,11.85
2022-09-17T08:12:21.995Z,11.42
2022-09-17T08:14:50.304Z,11.75
2022-09-17T08:17:20.844Z,11.99
2022-09-17T08:19:49.376Z,12.02
2022-09-17T08:22:20.795Z,12.03
2022-09-17T08:24:50.493Z,11.74
2022-09-17T08:27:19.334Z,12.06
2022-09-17T08:29:47.715Z,12.29
2022-09-17T08:32:18.720Z,12.38
2022-09-17T08:34:46.999Z,12.12
2022-09-17T08:37:15.719Z,12.32
2022-09-17T08:39:44.047Z,12.11
2022-09-17T08:42:17.917Z,11.84
2022-09-17T08:44:48.604Z,12.27
2022-09-17T08:47:22.509Z,12.45
2022-09-17T08:50:09.465Z,12.30
2022-09-17T08:53:02.063Z,12.52
2022-09-17T08:55:54.250Z,12.52
2022-09-17T08:58:32.137Z,12.68
2022-09-17T09:01:07.199Z,12.69
2022-09-17T09:03:42.037Z,12.46
2022-09-17T09:06:11.131Z,12.65
2022-09-17T09:08:58.900Z,12.67
2022-09-17T09:11:31.153Z,13.08
2022-09-17T09:14:03.308Z,13.17
2022-09-17T09:16:34.155Z,13.06
2022-09-17T09:19:13.530Z,12.95
2022-09-17T09:21:45.610Z,13.37
2022-09-17T09:24:20.381Z,13.51
2022-09-17T09:26:49.571Z,13.53
2022-09-17T09:29:23.433Z,13.33
2022-09-17T09:32:01.589Z,13.71
2022-09-17T09:34:30.146Z,13.19
2022-09-17T09:37:03.829Z,13.52
2022-09-17T09:39:41.231Z,13.02
2022-09-17T09:42:16.204Z,12.85
2022-09-17T09:44:46.370Z,13.24
2022-09-17T09:47:23.096Z,13.00
2022-09-17T09:49:59.757Z,13.01
2022-09-17T09:52:40.144Z,13.29
2022-09-17T09:55:25.873Z,13.64
2022-09-17T09:57:57.001Z,13.53
2022-09-17T10:00:29.428Z,13.60
2022-09-17T10:03:01.491Z,13.84
2022-09-17T10:05:29.879Z,13.98
2022-09-17T10:07:59.463Z,13.69
2022-09-17T10:10:56.941Z,13.28
2022-09-17T10:13:25.568Z,13.78
2022-09-17T10:15:56.576Z,13.23
2022-09-17T10:18:25.556Z,13.66
2022-09-17T10:20:56.121Z,13.55
2022-09-17T10:23:25.536Z,13.28
2022-09-17T10:25:55.839Z,13.17
2022-09-17T10:28:33.343Z,13.34
2022-09-17T10:31:08.643Z,13.32
2022-09-17T10:33:38.331Z,13.53
2022-09-17T10:36:07.989Z,13.55
2022-09-17T10:38:38.357Z,13.51
2022-09-17T10:41:15.811Z,13.02
2022-09-17T10:43:44.438Z,13.00
2022-09-17T10:46:17.230Z,12.54
2022-09-17T10:48:47.519Z,11.77
2022-09-17T10:51:22.920Z,11.52
2022-09-17T10:54:04.879Z,11.55
2022-09-17T10:56:36.554Z,11.67
2022-09-17T10:59:14.218Z,11.63
2022-09-17T11:04:43.391Z,11.50
2022-09-17T11:10:19.930Z,11.40
2022-09-17T11:12:57.785Z,11.50
2022-09-17T11:15:32.706Z,11.55
2022-09-17T11:18:31.278Z,11.63
2022-09-17T11:21:08.707Z,11.80
2022-09-17T11:23:51.859Z,12.18
2022-09-17T11:26:27.824Z,12.29
2022-09-17T11:28:59.375Z,12.33
2022-09-17T11:31:32.107Z,12.52
2022-09-17T11:34:12.522Z,12.44
2022-09-17T11:36:46.111Z,12.26
2022-09-17T11:39:16.023Z,12.30
2022-09-17T11:41:45.538Z,12.49
2022-09-17T11:44:16.164Z,12.31
2022-09-17T11:46:45.769Z,12.27
2022-09-17T11:49:19.975Z,12.08
2022-09-17T11:51:49.276Z,12.05
2022-09-17T11:54:20.847Z,12.05
2022-09-17T11:56:50.714Z,12.22
2022-09-17T11:59:22.614Z,12.10
2022-09-17T12:04:44.189Z,10.91
2022-09-17T12:07:19.503Z,11.31
2022-09-17T12:09:50.128Z,11.35
2022-09-17T12:12:44.811Z,11.36
2022-09-17T12:15:14.762Z,11.13
2022-09-17T12:20:36.391Z,11.46
2022-09-17T12:23:09.875Z,11.58
2022-09-17T12:25:40.271Z,11.40
2022-09-17T12:28:09.881Z,11.49
2022-09-17T12:30:39.600Z,11.58
2022-09-17T12:36:16.173Z,11.62
2022-09-17T12:38:51.612Z,11.22
2022-09-17T12:41:21.808Z,11.07
2022-09-17T12:44:16.960Z,11.14
2022-09-17T12:46:56.044Z,11.48
2022-09-17T12:49:32.686Z,11.59
2022-09-17T12:52:03.485Z,11.67
2022-09-17T12:54:45.431Z,11.91
2022-09-17T12:57:20.265Z,11.76
2022-09-17T12:59:51.414Z,11.74
2022-09-17T13:02:22.881Z,11.65
2022-09-17T13:05:09.314Z,11.74
2022-09-17T13:07:52.845Z,11.34
2022-09-17T13:10:28.759Z,11.18
2022-09-17T13:12:58.793Z,11.18
2022-09-17T13:15:44.752Z,11.19
2022-09-17T13:18:27.424Z,11.44
2022-09-17T13:21:03.805Z,11.50
2022-09-17T13:23:40.466Z,11.59
2022-09-17T13:26:09.476Z,11.44
2022-09-17T13:28:44.643Z,11.55
2022-09-17T13:31:16.188Z,11.53
2022-09-17T13:33:54.545Z,11.63
2022-09-17T13:36:41.806Z,11.57
2022-09-17T13:39:12.580Z,11.92
2022-09-17T13:41:41.974Z,12.05
2022-09-17T13:44:12.669Z,12.14
2022-09-17T13:46:41.072Z,12.13
2022-09-17T13:49:15.249Z,12.20
2022-09-17T13:51:50.645Z,12.25
2022-09-17T13:54:21.499Z,12.38
2022-09-17T13:56:52.448Z,12.43
2022-09-17T13:59:22.351Z,12.38
2022-09-17T14:02:00.075Z,12.29
2022-09-17T14:04:37.362Z,11.90
2022-09-17T14:07:32.765Z,12.04
2022-09-17T14:10:02.635Z,12.27
2022-09-17T14:12:53.660Z,12.03
2022-09-17T14:15:37.236Z,12.11
2022-09-17T14:18:26.066Z,12.06
2022-09-17T14:20:55.599Z,11.94
2022-09-17T14:23:36.375Z,12.09
2022-09-17T14:28:56.454Z,10.56
2022-09-17T14:31:26.794Z,10.24
2022-09-17T14:33:55.236Z,9.95
2022-09-17T14:36:25.111Z,10.05
2022-09-17T14:38:55.468Z,9.92
2022-09-17T14:41:26.234Z,9.94
2022-09-17T14:43:58.301Z,10.00
2022-09-17T14:46:28.774Z,10.13
2022-09-17T14:48:57.259Z,10.10
2022-09-17T14:51:28.436Z,10.23
2022-09-17T14:54:20.006Z,10.18
2022-09-17T14:56:53.758Z,10.32
2022-09-17T14:59:30.233Z,10.47
2022-09-17T15:01:58.629Z,10.75
2022-09-17T15:04:28.673Z,10.85
2022-09-17T15:09:55.650Z,10.80
2022-09-17T15:12:27.409Z,10.79
2022-09-17T15:15:13.295Z,10.72
2022-09-17T15:17:43.002Z,10.69
2022-09-17T15:20:12.917Z,10.62
2022-09-17T15:22:41.283Z,10.72
2022-09-17T15:25:10.888Z,10.56
2022-09-17T15:27:42.026Z,10.79
2022-09-17T15:30:13.657Z,10.74
2022-09-17T15:32:44.456Z,10.77
2022-09-17T15:35:32.807Z,10.98
2022-09-17T15:38:22.841Z,10.71
2022-09-17T15:40:51.934Z,10.50
2022-09-17T15:43:26.125Z,10.79
2022-09-17T15:45:54.765Z,10.81
2022-09-17T15:48:35.655Z,10.75
2022-09-17T15:51:04.832Z,11.09
2022-09-17T15:53:52.562Z,11.16
2022-09-17T15:56:21.617Z,10.82
2022-09-17T15:58:56.184Z,10.94
2022-09-17T16:01:54.500Z,11.02
2022-09-17T16:04:24.520Z,10.87
2022-09-17T16:06:56.108Z,10.88
2022-09-17T16:09:40.563Z,11.13
2022-09-17T16:12:09.297Z,11.06
2022-09-17T16:17:29.612Z,10.90
2022-09-17T16:20:02.494Z,10.88
2022-09-17T16:22:34.085Z,10.95
2022-09-17T16:25:32.701Z,10.91
2022-09-17T16:28:05.572Z,10.70
2022-09-17T16:30:35.389Z,10.56
2022-09-17T16:33:06.984Z,10.46
2022-09-17T16:35:35.332Z,10.54
2022-09-17T16:38:03.741Z,10.20
2022-09-17T16:40:32.144Z,10.13
2022-09-17T16:43:02.097Z,10.26
2022-09-17T16:45:30.973Z,10.27
2022-09-17T16:48:00.681Z,10.38
2022-09-17T16:50:29.051Z,10.02
2022-09-17T16:53:00.437Z,9.79
2022-09-17T16:58:17.707Z,9.47
2022-09-17T17:00:46.250Z,9.43
2022-09-17T17:03:16.761Z,9.59
2022-09-17T17:05:45.275Z,9.41
2022-09-17T17:08:14.845Z,9.26
2022-09-17T17:10:43.201Z,9.35
2022-09-17T17:13:11.817Z,9.41
2022-09-17T17:15:42.113Z,9.57
2022-09-17T17:18:10.858Z,9.41
2022-09-17T17:20:40.552Z,9.30
2022-09-17T17:23:08.872Z,9.38
2022-09-17T17:25:37.612Z,9.33
2022-09-17T17:28:05.944Z,9.33
2022-09-17T17:30:35.156Z,9.41
2022-09-17T17:33:04.241Z,9.34
2022-09-17T17:35:33.072Z,9.38
2022-09-17T17:38:03.500Z,9.28
2022-09-17T17:40:32.580Z,9.39
2022-09-17T17:43:01.089Z,9.31
2022-09-17T17:45:29.613Z,9.45
2022-09-17T17:47:57.990Z,9.44
2022-09-17T17:50:28.084Z,9.20
2022-09-17T17:52:56.396Z,9.22
2022-09-17T17:55:26.970Z,9.12
2022-09-17T17:58:10.673Z,9.29
2022-09-17T18:00:41.528Z,9.24
2022-09-17T18:03:11.139Z,9.24
2022-09-17T18:05:40.971Z,9.35
2022-09-17T18:08:09.718Z,9.11
2022-09-17T18:10:43.849Z,9.12
2022-09-17T18:13:12.204Z,9.23
2022-09-17T18:15:40.670Z,9.31
2022-09-17T18:18:09.081Z,9.26
2022-09-17T18:20:38.823Z,9.19
2022-09-17T18:23:08.010Z,9.28
2022-09-17T18:25:39.948Z,9.33
2022-09-17T18:28:09.711Z,9.28
2022-09-17T18:30:38.787Z,9.27
2022-09-17T18:33:07.116Z,9.39
2022-09-17T18:35:37.508Z,9.51
2022-09-17T18:38:07.339Z,9.63
2022-09-17T18:40:35.740Z,9.57
2022-09-17T18:43:05.870Z,9.63
2022-09-17T18:45:35.762Z,9.88
2022-09-17T18:48:04.588Z,10.02
2022-09-17T18:50:32.889Z,9.97
2022-09-17T18:53:01.724Z,9.82
2022-09-17T18:55:48.800Z,9.91
2022-09-17T18:58:17.159Z,9.97
2022-09-17T19:00:46.998Z,10.00
2022-09-17T19:03:19.050Z,10.06
2022-09-17T19:05:47.435Z,10.05
2022-09-17T19:08:15.938Z,9.89
2022-09-17T19:10:44.699Z,10.06
2022-09-17T19:13:13.026Z,10.09
2022-09-17T19:15:42.518Z,10.17
2022-09-17T19:18:13.402Z,10.06
2022-09-17T19:20:41.907Z,10.05
2022-09-17T19:23:10.209Z,10.08
2022-09-17T19:25:39.006Z,10.12
2022-09-17T19:28:07.737Z,10.02
2022-09-17T19:30:36.174Z,10.30
2022-09-17T19:33:04.722Z,10.13
2022-09-17T19:35:34.564Z,10.18
2022-09-17T19:38:04.108Z,10.14
2022-09-17T19:40:32.511Z,10.05
2022-09-17T19:43:01.315Z,10.16
2022-09-17T19:45:29.677Z,10.07
2022-09-17T19:48:01.849Z,10.12
2022-09-17T19:50:30.237Z,10.02
2022-09-17T19:52:59.952Z,10.03
2022-09-17T19:55:28.807Z,10.02
2022-09-17T19:57:57.108Z,9.94
2022-09-17T20:00:25.723Z,9.90
2022-09-17T20:02:54.105Z,10.00
2022-09-17T20:05:22.953Z,10.02
2022-09-17T20:07:51.511Z,9.96
2022-09-17T20:10:24.150Z,9.80
2022-09-17T20:12:52.509Z,9.87
2022-09-17T20:15:20.809Z,9.79
2022-09-17T20:17:49.291Z,9.83
2022-09-17T20:20:18.416Z,9.85
2022-09-17T20:22:48.346Z,9.83
2022-09-17T20:25:16.717Z,9.84
2022-09-17T20:27:46.402Z,9.76
2022-09-17T20:30:15.322Z,9.71
2022-09-17T20:32:45.806Z,9.83
2022-09-17T20:35:14.260Z,9.84
2022-09-17T20:40:53.523Z,9.85
2022-09-17T20:43:24.298Z,9.68
2022-09-17T20:45:57.803Z,9.86
2022-09-17T20:48:26.124Z,9.91
2022-09-17T20:50:57.739Z,9.99
2022-09-17T20:53:26.181Z,10.20
2022-09-17T20:55:57.232Z,10.10
2022-09-17T20:58:27.567Z,10.08
2022-09-17T21:00:56.270Z,10.26
2022-09-17T21:03:26.318Z,10.13
2022-09-17T21:05:54.677Z,10.17
2022-09-17T21:08:25.342Z,9.99
2022-09-17T21:10:55.146Z,10.21
2022-09-17T21:13:23.463Z,10.17
2022-09-17T21:15:59.032Z,10.12
2022-09-17T21:18:27.519Z,10.11
2022-09-17T21:20:56.269Z,10.19
2022-09-17T21:23:25.596Z,10.13
2022-09-17T21:25:53.947Z,10.07
2022-09-17T21:28:22.344Z,10.05
2022-09-17T21:30:56.661Z,10.07
2022-09-17T21:33:26.350Z,10.13
2022-09-17T21:35:54.716Z,10.12
2022-09-17T21:38:24.474Z,10.21
2022-09-17T21:40:57.436Z,10.16
2022-09-17T21:43:25.902Z,10.17
2022-09-17T21:46:01.754Z,10.09
2022-09-17T21:48:31.764Z,10.22
2022-09-17T21:51:04.480Z,10.04
2022-09-17T21:53:33.305Z,10.14
2022-09-17T21:56:04.163Z,10.18
2022-09-17T21:58:32.879Z,10.25
2022-09-17T22:01:06.892Z,10.34
2022-09-17T22:03:36.624Z,10.34
2022-09-17T22:06:06.214Z,10.39
2022-09-17T22:08:34.665Z,10.33
2022-09-17T22:11:07.343Z,10.24
2022-09-17T22:13:36.377Z,10.09
2022-09-17T22:16:05.390Z,10.31
2022-09-17T22:18:33.860Z,10.31
2022-09-17T22:21:29.918Z,10.22
2022-09-17T22:23:58.973Z,10.19
2022-09-17T22:26:46.454Z,10.24
2022-09-17T22:29:15.595Z,10.19
2022-09-17T22:31:47.081Z,10.23
2022-09-17T22:34:16.452Z,10.14
2022-09-17T22:36:46.162Z,10.33
2022-09-17T22:39:14.929Z,10.30
2022-09-17T22:41:45.869Z,10.39
2022-09-17T22:44:15.911Z,10.43
2022-09-17T22:46:46.519Z,10.25
2022-09-17T22:49:15.152Z,10.19
2022-09-17T22:51:43.539Z,10.23
2022-09-17T22:54:13.765Z,10.37
2022-09-17T22:56:43.648Z,10.34
2022-09-17T22:59:12.016Z,10.52
2022-09-17T23:01:40.556Z,10.48
2022-09-17T23:04:09.394Z,10.17
2022-09-17T23:06:43.882Z,10.40
2022-09-17T23:09:14.914Z,10.41
2022-09-17T23:11:43.279Z,10.40
2022-09-17T23:14:12.997Z,10.49
2022-09-17T23:16:42.094Z,10.55
2022-09-17T23:19:10.423Z,10.53
2022-09-17T23:21:39.255Z,10.59
2022-09-17T23:24:07.850Z,10.37
2022-09-17T23:26:37.655Z,10.36
2022-09-17T23:29:06.513Z,10.40
2022-09-17T23:31:35.996Z,10.55
2022-09-17T23:34:04.787Z,10.56
2022-09-17T23:36:34.749Z,10.57
2022-09-17T23:39:03.562Z,10.41
2022-09-17T23:41:32.734Z,10.47
2022-09-17T23:44:03.211Z,10.62
2022-09-17T23:46:34.049Z,10.52
2022-09-17T23:49:02.488Z,10.52
2022-09-17T23:51:31.982Z,10.60
2022-09-17T23:54:01.793Z,10.69
2022-09-17T23:56:30.264Z,10.57
2022-09-17T23:59:00.315Z,10.68
